Time;durP1;ratioP1;P1;durP2;ratioP2;P2;SDS_P1;SDS_P2;PMS_P1;PMS_P2;Temp;Humidity;BMP_temperature;BMP_pressure;BME280_temperature;BME280_humidity;BME280_pressure;Samples;Min_cycle;Max_cycle;Signal;HPM_P1;HPM_P2
2022/07/18 00:01:42;;;;;;;3.20;1.90;;;20.00;68.20;;;;;;5052676;28;20025;-48
2022/07/18 00:04:08;;;;;;;5.75;1.63;;;19.90;68.00;;;;;;5053532;28;20036;-47
2022/07/18 00:06:33;;;;;;;4.72;1.90;;;19.90;68.10;;;;;;5053724;28;20532;-52
2022/07/18 00:08:59;;;;;;;5.72;1.95;;;20.00;68.00;;;;;;5034660;28;20021;-46
2022/07/18 00:11:24;;;;;;;8.30;2.00;;;20.00;68.00;;;;;;5053714;28;20037;-46
2022/07/18 00:13:51;;;;;;;8.82;2.38;;;20.00;67.80;;;;;;5053273;28;20029;-45
2022/07/18 00:16:17;;;;;;;5.22;2.97;;;20.00;68.20;;;;;;5053305;28;20025;-46
2022/07/18 00:18:43;;;;;;;7.68;2.08;;;20.00;68.20;;;;;;5052539;28;20080;-48
2022/07/18 00:21:08;;;;;;;3.88;2.10;;;20.00;67.90;;;;;;5053141;28;20432;-45
2022/07/18 00:23:34;;;;;;;5.65;2.10;;;20.00;68.10;;;;;;5052965;28;20051;-49
2022/07/18 00:25:59;;;;;;;6.13;2.00;;;20.00;68.10;;;;;;5052984;28;20029;-49
2022/07/18 00:28:25;;;;;;;8.57;2.13;;;19.90;68.40;;;;;;5052385;28;20182;-46
2022/07/18 00:30:50;;;;;;;11.20;1.98;;;19.90;68.40;;;;;;5053016;28;20142;-44
2022/07/18 00:33:16;;;;;;;5.45;2.03;;;19.90;68.70;;;;;;5053032;28;20037;-47
2022/07/18 00:35:41;;;;;;;3.08;2.00;;;19.80;68.70;;;;;;5052847;28;20439;-45
2022/07/18 00:38:07;;;;;;;4.65;2.20;;;19.80;68.90;;;;;;5052032;28;20049;-47
2022/07/18 00:40:33;;;;;;;8.00;2.10;;;19.70;68.80;;;;;;5035290;28;20036;-46
2022/07/18 00:42:58;;;;;;;4.95;2.08;;;19.70;69.00;;;;;;5052583;28;20485;-46
2022/07/18 00:45:24;;;;;;;6.85;2.35;;;19.70;69.10;;;;;;5052418;28;20120;-44
2022/07/18 00:47:51;;;;;;;6.97;1.92;;;19.60;69.10;;;;;;5033590;28;20121;-46
2022/07/18 00:50:21;;;;;;;8.32;1.90;;;19.60;69.40;;;;;;5052657;28;20025;-46
2022/07/18 00:52:47;;;;;;;3.38;2.17;;;19.60;69.40;;;;;;5052509;28;20396;-46
2022/07/18 00:55:13;;;;;;;4.45;1.65;;;19.60;69.70;;;;;;5052403;28;20032;-46
2022/07/18 00:57:40;;;;;;;3.42;2.30;;;19.50;69.80;;;;;;5051655;28;20025;-45
2022/07/18 01:02:54;;;;;;;6.45;2.17;;;19.50;69.70;;;;;;5052550;28;20040;-45
2022/07/18 01:05:20;;;;;;;3.85;1.85;;;19.50;69.80;;;;;;5052483;28;20017;-46
2022/07/18 01:07:45;;;;;;;3.25;1.92;;;19.50;69.80;;;;;;5051690;28;20063;-46
2022/07/18 01:10:11;;;;;;;7.35;1.85;;;19.40;69.90;;;;;;5052450;28;20113;-44
2022/07/18 01:12:37;;;;;;;3.63;1.83;;;19.50;69.90;;;;;;5052102;28;20074;-48
2022/07/18 01:15:03;;;;;;;3.22;1.92;;;19.50;70.10;;;;;;5052304;28;20047;-49
2022/07/18 01:17:29;;;;;;;2.05;1.52;;;19.60;70.00;;;;;;5051442;28;20107;-49
2022/07/18 01:19:54;;;;;;;4.00;1.60;;;19.60;70.00;;;;;;5052177;28;20115;-48
2022/07/18 01:22:20;;;;;;;6.72;2.13;;;19.60;70.00;;;;;;5051973;28;20060;-48
2022/07/18 01:24:47;;;;;;;2.03;1.48;;;19.50;70.00;;;;;;5052088;28;20492;-51
2022/07/18 01:27:19;;;;;;;5.95;2.17;;;19.50;69.90;;;;;;5051311;28;20095;-43
2022/07/18 01:29:46;;;;;;;3.45;2.50;;;19.50;70.20;;;;;;5051986;28;20404;-48
2022/07/18 01:32:13;;;;;;;4.63;1.83;;;19.50;70.10;;;;;;5033834;28;20033;-47
2022/07/18 01:34:39;;;;;;;6.55;2.10;;;19.50;70.10;;;;;;5051885;28;20481;-45
2022/07/18 01:37:06;;;;;;;6.53;1.67;;;19.40;70.30;;;;;;5051267;28;20651;-46
2022/07/18 01:39:31;;;;;;;4.38;1.80;;;19.30;70.20;;;;;;5051763;28;20132;-45
2022/07/18 01:41:59;;;;;;;9.35;2.03;;;19.30;70.30;;;;;;5051712;28;20072;-50
2022/07/18 01:44:25;;;;;;;3.08;1.80;;;19.30;70.40;;;;;;5051853;28;20556;-45
2022/07/18 01:46:51;;;;;;;1.83;1.63;;;19.30;70.40;;;;;;5051733;28;20035;-46
2022/07/18 01:49:17;;;;;;;3.58;1.60;;;19.30;70.50;;;;;;5052036;28;20100;-47
2022/07/18 01:51:50;;;;;;;3.65;1.70;;;19.20;70.30;;;;;;5051655;28;20024;-45
2022/07/18 01:54:16;;;;;;;4.05;1.35;;;19.30;70.40;;;;;;5051568;28;20021;-50
2022/07/18 01:56:41;;;;;;;4.65;1.50;;;19.30;70.50;;;;;;5051419;28;20056;-47
2022/07/18 01:59:07;;;;;;;4.72;1.55;;;19.20;70.30;;;;;;5050866;28;20060;-45
2022/07/18 02:01:32;;;;;;;7.47;1.98;;;19.10;70.70;;;;;;5050757;28;20025;-47
2022/07/18 02:03:58;;;;;;;3.92;1.77;;;19.10;70.90;;;;;;5051412;28;20028;-46
2022/07/18 02:06:23;;;;;;;3.95;1.85;;;19.10;71.00;;;;;;5051413;28;20037;-46
2022/07/18 02:08:49;;;;;;;5.75;1.67;;;19.00;71.20;;;;;;5050542;28;20083;-47
2022/07/18 02:11:14;;;;;;;6.05;2.95;;;19.00;71.60;;;;;;5051742;28;20029;-48
2022/07/18 02:13:40;;;;;;;5.55;1.88;;;18.90;71.50;;;;;;5051362;28;20032;-46
2022/07/18 02:16:06;;;;;;;6.55;2.10;;;18.90;71.90;;;;;;5051250;28;20108;-45
2022/07/18 02:18:32;;;;;;;2.10;1.77;;;18.80;71.80;;;;;;5050653;28;20158;-48
2022/07/18 02:21:01;;;;;;;7.50;1.73;;;18.80;71.90;;;;;;5051339;28;20392;-45
2022/07/18 02:23:27;;;;;;;4.22;1.52;;;18.80;72.00;;;;;;5051164;28;20025;-44
2022/07/18 02:25:53;;;;;;;4.10;2.38;;;18.70;72.10;;;;;;5051468;28;20028;-45
2022/07/18 02:28:19;;;;;;;2.25;1.73;;;18.70;72.20;;;;;;5050531;28;20464;-48
2022/07/18 02:30:44;;;;;;;6.18;1.95;;;18.70;72.40;;;;;;5051286;28;20040;-47
2022/07/18 02:33:10;;;;;;;3.28;1.67;;;18.60;72.30;;;;;;5052295;28;20045;-46
2022/07/18 02:35:35;;;;;;;4.78;1.80;;;18.60;72.30;;;;;;5051048;28;20032;-47
2022/07/18 02:38:01;;;;;;;11.10;2.53;;;18.60;72.40;;;;;;5050237;28;20389;-44
2022/07/18 02:40:27;;;;;;;2.83;1.73;;;18.60;72.60;;;;;;5051378;28;20041;-49
2022/07/18 02:42:52;;;;;;;4.80;1.40;;;18.50;72.80;;;;;;5050915;28;20525;-48
2022/07/18 02:45:18;;;;;;;2.83;1.40;;;18.50;72.80;;;;;;5051022;28;20021;-45
2022/07/18 02:47:43;;;;;;;3.80;2.03;;;18.40;72.70;;;;;;5050333;28;20025;-44
2022/07/18 02:50:12;;;;;;;2.13;1.50;;;18.40;72.70;;;;;;5050908;28;20037;-48
2022/07/18 02:52:40;;;;;;;4.50;1.92;;;18.30;73.20;;;;;;5050920;28;20059;-45
2022/07/18 02:55:05;;;;;;;4.10;1.70;;;18.20;73.20;;;;;;5050928;28;20116;-49
2022/07/18 02:57:31;;;;;;;3.33;1.50;;;18.30;72.70;;;;;;5050128;28;20103;-49
2022/07/18 02:59:57;;;;;;;5.03;2.33;;;18.20;72.90;;;;;;5050719;28;20021;-48
2022/07/18 03:02:22;;;;;;;13.45;1.58;;;18.20;73.20;;;;;;5048912;28;20021;-48
2022/07/18 03:04:48;;;;;;;4.57;1.63;;;18.20;73.10;;;;;;5050742;28;20508;-47
2022/07/18 03:07:13;;;;;;;2.08;1.88;;;18.20;72.90;;;;;;5050066;28;20033;-48
2022/07/18 03:09:39;;;;;;;1.67;1.58;;;18.20;72.90;;;;;;5052044;28;20112;-46
2022/07/18 03:12:04;;;;;;;14.65;3.95;;;18.20;72.80;;;;;;5054456;28;20394;-47
2022/07/18 03:14:30;;;;;;;3.38;1.40;;;18.20;72.70;;;;;;5054425;28;20021;-48
2022/07/18 03:16:55;;;;;;;6.35;1.80;;;18.20;73.00;;;;;;5053503;28;20029;-47
2022/07/18 03:19:21;;;;;;;6.03;1.52;;;18.10;73.10;;;;;;5054157;28;20028;-49
2022/07/18 03:21:46;;;;;;;2.28;1.52;;;18.10;73.00;;;;;;5054355;28;20025;-46
2022/07/18 03:24:13;;;;;;;4.65;1.30;;;18.00;73.00;;;;;;5054133;28;20025;-50
2022/07/18 03:26:39;;;;;;;2.63;1.60;;;18.00;73.00;;;;;;5054069;28;20464;-48
2022/07/18 03:29:05;;;;;;;5.20;1.95;;;18.00;73.00;;;;;;5053390;28;20029;-44
2022/07/18 03:31:31;;;;;;;7.15;1.23;;;18.00;73.00;;;;;;5054009;28;20025;-45
2022/07/18 03:33:56;;;;;;;3.90;1.30;;;18.00;73.20;;;;;;5054184;28;20106;-47
2022/07/18 03:36:22;;;;;;;2.45;1.42;;;18.00;72.80;;;;;;5054075;28;20116;-44
2022/07/18 03:38:47;;;;;;;1.75;1.40;;;18.00;73.00;;;;;;5053154;28;20480;-43
2022/07/18 03:41:13;;;;;;;1.95;1.33;;;17.90;72.90;;;;;;5053704;28;20033;-48
2022/07/18 03:43:39;;;;;;;10.32;2.33;;;18.00;72.80;;;;;;5053569;28;20022;-44
2022/07/18 03:46:06;;;;;;;2.53;1.52;;;18.00;73.00;;;;;;5035652;28;20032;-47
2022/07/18 03:48:31;;;;;;;2.72;1.48;;;17.90;72.80;;;;;;5052908;28;20397;-44
2022/07/18 03:50:57;;;;;;;2.75;1.33;;;17.90;72.70;;;;;;5053718;28;20029;-45
2022/07/18 03:53:22;;;;;;;5.00;1.52;;;17.90;72.70;;;;;;5053749;28;20116;-45
2022/07/18 03:55:48;;;;;;;5.18;1.30;;;17.90;72.80;;;;;;5053629;28;20032;-41
2022/07/18 03:58:13;;;;;;;2.55;1.40;;;18.00;72.80;;;;;;5053076;28;20048;-46
2022/07/18 04:00:39;;;;;;;2.13;1.20;;;18.00;72.70;;;;;;5052315;28;20021;-43
2022/07/18 04:03:04;;;;;;;3.90;1.38;;;18.00;72.80;;;;;;5053265;28;20100;-44
2022/07/18 04:05:30;;;;;;;1.35;1.25;;;18.00;72.60;;;;;;5053237;28;20099;-45
2022/07/18 04:07:55;;;;;;;3.78;1.52;;;18.00;72.80;;;;;;5052653;28;20025;-45
2022/07/18 04:10:21;;;;;;;5.03;1.25;;;18.00;72.70;;;;;;5052927;28;20025;-46
2022/07/18 04:12:51;;;;;;;4.30;1.20;;;18.00;72.80;;;;;;5052886;28;20112;-44
2022/07/18 04:15:18;;;;;;;6.60;1.40;;;18.00;72.80;;;;;;5053145;28;20512;-44
2022/07/18 04:17:44;;;;;;;4.05;1.50;;;18.00;72.70;;;;;;5034723;28;20489;-48
2022/07/18 04:20:10;;;;;;;6.60;2.50;;;18.00;72.90;;;;;;5052865;28;20109;-45
2022/07/18 04:23:03;;;;;;;2.55;1.38;;;18.10;73.00;;;;;;5052910;28;20071;-42
2022/07/18 04:25:37;;;;;;;3.90;1.58;;;18.10;72.90;;;;;;5049810;28;20102;-45
2022/07/18 04:28:03;;;;;;;2.40;1.50;;;18.10;73.00;;;;;;5052337;28;20017;-41
2022/07/18 04:30:29;;;;;;;2.30;1.63;;;18.10;73.00;;;;;;5052838;28;20115;-41
2022/07/18 04:32:55;;;;;;;2.17;1.40;;;18.20;72.70;;;;;;5052776;28;20064;-45
2022/07/18 04:35:22;;;;;;;3.20;2.22;;;18.20;72.90;;;;;;5052828;28;20075;-45
2022/07/18 04:37:49;;;;;;;5.28;1.83;;;18.20;72.90;;;;;;5034263;28;20174;-41
2022/07/18 04:40:15;;;;;;;3.33;1.10;;;18.30;73.00;;;;;;5052905;28;20483;-45
2022/07/18 04:42:41;;;;;;;2.10;1.42;;;18.40;73.00;;;;;;5052489;28;20541;-46
2022/07/18 04:45:07;;;;;;;8.40;1.60;;;18.50;72.50;;;;;;5052678;28;20025;-45
2022/07/18 04:47:34;;;;;;;7.40;1.85;;;18.60;72.50;;;;;;5051926;28;20052;-49
2022/07/18 04:50:00;;;;;;;1.85;1.23;;;18.70;72.30;;;;;;5052353;28;20029;-47
2022/07/18 04:52:26;;;;;;;2.67;1.20;;;18.80;72.10;;;;;;5052447;28;20029;-49
2022/07/18 04:54:51;;;;;;;3.25;1.00;;;19.00;72.10;;;;;;5052650;28;20098;-49
2022/07/18 04:57:18;;;;;;;2.47;1.17;;;19.40;70.50;;;;;;5051666;28;20029;-46
2022/07/18 04:59:44;;;;;;;2.38;1.42;;;19.70;69.80;;;;;;5034608;28;20043;-42
2022/07/18 05:02:10;;;;;;;3.28;1.40;;;20.20;68.80;;;;;;5051002;28;20040;-47
2022/07/18 05:04:37;;;;;;;3.15;1.20;;;21.00;68.10;;;;;;5052228;28;20036;-41
2022/07/18 05:07:03;;;;;;;3.28;1.20;;;21.70;65.30;;;;;;5051444;28;20053;-47
2022/07/18 05:09:29;;;;;;;3.63;1.50;;;22.60;64.20;;;;;;5052487;28;20102;-49
2022/07/18 05:11:55;;;;;;;2.40;1.25;;;23.20;63.20;;;;;;5052043;28;20163;-49
2022/07/18 05:14:20;;;;;;;2.33;1.30;;;24.00;61.10;;;;;;5052174;28;20556;-46
2022/07/18 05:16:46;;;;;;;4.88;1.30;;;24.60;60.20;;;;;;5052017;28;20021;-43
2022/07/18 05:19:12;;;;;;;4.97;1.35;;;24.70;59.40;;;;;;5051666;28;20468;-44
2022/07/18 05:21:37;;;;;;;1.85;1.27;;;24.60;59.80;;;;;;5051815;28;20040;-49
2022/07/18 05:24:03;;;;;;;2.95;1.50;;;24.80;60.10;;;;;;5052066;28;20029;-48
2022/07/18 05:26:28;;;;;;;3.22;1.30;;;25.40;59.30;;;;;;5052083;28;20024;-46
2022/07/18 05:28:54;;;;;;;2.45;1.60;;;25.90;58.30;;;;;;5050634;28;20024;-43
2022/07/18 05:31:19;;;;;;;4.13;1.42;;;26.60;57.70;;;;;;5050549;28;20044;-48
2022/07/18 05:33:45;;;;;;;7.43;1.88;;;26.80;57.20;;;;;;5050985;28;20036;-46
2022/07/18 05:36:10;;;;;;;9.82;1.70;;;27.30;56.20;;;;;;5046078;28;20064;-52
2022/07/18 05:38:36;;;;;;;2.03;1.38;;;27.70;55.80;;;;;;5042335;28;20037;-44
2022/07/18 05:41:01;;;;;;;3.92;1.17;;;28.20;54.50;;;;;;5051823;28;20439;-46
2022/07/18 05:43:27;;;;;;;4.25;1.33;;;28.70;53.60;;;;;;5035914;28;20061;-50
2022/07/18 05:45:53;;;;;;;2.47;1.35;;;28.60;54.10;;;;;;5044286;28;20108;-46
2022/07/18 05:48:18;;;;;;;1.20;1.10;;;28.40;54.30;;;;;;5030925;28;20371;-47
2022/07/18 05:50:44;;;;;;;2.65;1.25;;;28.30;53.90;;;;;;5030722;28;20098;-45
2022/07/18 05:53:10;;;;;;;2.50;1.17;;;28.30;54.40;;;;;;5041226;28;20497;-54
2022/07/18 05:55:35;;;;;;;4.47;1.48;;;28.20;53.90;;;;;;5031527;28;20026;-56
2022/07/18 05:58:01;;;;;;;3.85;1.15;;;28.20;54.00;;;;;;5031577;28;20037;-55
2022/07/18 06:00:26;;;;;;;4.55;1.10;;;28.10;54.20;;;;;;5045801;28;20491;-49
2022/07/18 06:02:52;;;;;;;3.22;1.20;;;28.20;54.50;;;;;;5051236;28;20025;-52
2022/07/18 06:05:18;;;;;;;3.30;1.25;;;28.70;54.00;;;;;;5049350;28;20017;-48
2022/07/18 06:07:44;;;;;;;2.88;1.30;;;29.50;53.00;;;;;;5025552;28;20032;-49
2022/07/18 06:10:09;;;;;;;6.05;1.92;;;29.90;52.30;;;;;;5051675;28;20028;-48
2022/07/18 06:12:35;;;;;;;2.13;1.17;;;30.40;51.70;;;;;;5050711;28;20025;-48
2022/07/18 06:15:01;;;;;;;2.97;1.33;;;31.00;51.00;;;;;;5051145;28;20446;-49
2022/07/18 06:17:30;;;;;;;6.60;1.48;;;30.90;50.20;;;;;;5050710;28;20116;-51
2022/07/18 06:19:56;;;;;;;3.70;1.20;;;30.90;50.70;;;;;;5050111;28;20548;-47
2022/07/18 06:22:23;;;;;;;2.38;1.20;;;30.90;50.90;;;;;;5051262;28;20299;-51
2022/07/18 06:24:48;;;;;;;6.80;0.85;;;31.10;50.70;;;;;;5051205;28;20108;-48
2022/07/18 06:27:14;;;;;;;5.50;1.58;;;31.20;50.00;;;;;;5050492;28;20426;-50
2022/07/18 06:29:40;;;;;;;4.75;1.20;;;30.90;50.40;;;;;;5051228;28;20017;-52
2022/07/18 06:32:06;;;;;;;3.65;1.42;;;31.30;49.30;;;;;;5050912;28;20072;-50
2022/07/18 06:34:31;;;;;;;2.38;1.10;;;30.90;49.80;;;;;;5051184;28;20389;-47
2022/07/18 06:36:57;;;;;;;7.28;1.27;;;31.00;50.50;;;;;;5050576;28;20497;-51
2022/07/18 06:39:22;;;;;;;2.72;1.02;;;31.20;49.60;;;;;;5051184;28;20116;-46
2022/07/18 06:41:48;;;;;;;6.00;2.00;;;30.90;50.40;;;;;;5050916;28;20021;-45
2022/07/18 06:44:14;;;;;;;3.65;1.15;;;31.20;50.60;;;;;;5051470;28;20548;-49
2022/07/18 06:46:40;;;;;;;7.32;1.20;;;32.00;49.50;;;;;;5054673;28;20025;-49
2022/07/18 06:49:06;;;;;;;3.88;1.63;;;32.70;49.50;;;;;;5054518;28;20083;-49
2022/07/18 06:51:31;;;;;;;3.33;1.25;;;33.40;48.90;;;;;;5054724;28;20021;-47
2022/07/18 06:53:57;;;;;;;2.83;1.00;;;34.20;47.50;;;;;;5055027;28;20090;-46
2022/07/18 06:56:23;;;;;;;1.70;1.02;;;34.50;47.30;;;;;;5054812;28;20500;-46
2022/07/18 06:58:49;;;;;;;3.45;1.05;;;33.90;47.80;;;;;;5053900;28;20108;-49
2022/07/18 07:01:17;;;;;;;1.98;1.23;;;33.90;47.70;;;;;;5054547;28;20488;-46
2022/07/18 07:03:42;;;;;;;3.63;1.10;;;34.20;47.90;;;;;;5054789;28;20108;-48
2022/07/18 07:06:08;;;;;;;4.00;1.40;;;34.20;48.00;;;;;;5054450;28;20107;-52
2022/07/18 07:08:34;;;;;;;7.43;1.40;;;34.40;47.20;;;;;;5053770;28;20396;-46
2022/07/18 07:10:59;;;;;;;4.72;1.50;;;34.40;47.00;;;;;;5054780;28;20040;-49
2022/07/18 07:13:25;;;;;;;3.03;1.38;;;34.50;46.90;;;;;;5054548;28;20033;-50
2022/07/18 07:15:51;;;;;;;3.05;1.63;;;34.20;46.80;;;;;;5054225;28;20203;-49
2022/07/18 07:18:16;;;;;;;3.97;1.38;;;34.20;47.10;;;;;;5054101;28;20082;-49
2022/07/18 07:20:42;;;;;;;2.15;1.05;;;34.20;47.20;;;;;;5052552;28;20033;-49
2022/07/18 07:23:08;;;;;;;2.47;1.08;;;34.40;47.10;;;;;;5037095;28;20027;-45
2022/07/18 07:25:35;;;;;;;19.38;1.67;;;35.00;46.20;;;;;;5055110;28;20100;-48
2022/07/18 07:28:01;;;;;;;8.57;1.48;;;35.00;46.40;;;;;;5053479;28;20442;-47
2022/07/18 07:30:26;;;;;;;8.10;0.88;;;35.30;46.10;;;;;;5054068;28;20056;-48
2022/07/18 07:32:52;;;;;;;9.50;1.10;;;35.80;45.90;;;;;;5053785;28;20131;-48
2022/07/18 07:35:19;;;;;;;4.30;1.52;;;35.40;45.90;;;;;;5054160;28;20040;-50
2022/07/18 07:37:47;;;;;;;3.55;1.10;;;35.20;46.10;;;;;;5053326;28;20029;-46
2022/07/18 07:40:14;;;;;;;5.32;1.20;;;35.20;45.90;;;;;;5050522;28;20029;-47
2022/07/18 07:42:40;;;;;;;8.45;1.00;;;35.20;45.30;;;;;;5052936;28;20397;-45
2022/07/18 07:45:06;;;;;;;2.53;1.10;;;34.70;46.30;;;;;;5053834;28;20027;-53
2022/07/18 07:47:32;;;;;;;6.97;1.52;;;35.20;45.90;;;;;;5051744;28;20102;-54
2022/07/18 07:49:58;;;;;;;9.57;1.58;;;35.20;46.00;;;;;;5024329;28;20053;-47
2022/07/18 07:52:24;;;;;;;4.25;1.42;;;35.20;45.40;;;;;;5053771;28;20404;-48
2022/07/18 07:54:51;;;;;;;3.35;1.40;;;34.80;46.10;;;;;;5041916;28;20033;-52
2022/07/18 07:57:18;;;;;;;8.75;1.40;;;34.80;46.30;;;;;;5033294;28;20037;-48
2022/07/18 07:59:43;;;;;;;4.57;1.40;;;35.30;45.30;;;;;;5015823;28;20524;-47
2022/07/18 08:02:09;;;;;;;5.15;1.58;;;34.70;46.00;;;;;;5041980;28;20061;-53
2022/07/18 08:04:34;;;;;;;5.90;1.75;;;35.30;46.50;;;;;;5041345;28;20037;-46
2022/07/18 08:07:00;;;;;;;6.68;1.15;;;36.10;45.10;;;;;;5033410;28;20153;-53
2022/07/18 08:09:26;;;;;;;6.10;1.30;;;36.60;44.30;;;;;;5048159;28;20021;-48
2022/07/18 08:11:51;;;;;;;5.03;1.52;;;36.60;44.40;;;;;;5035088;28;20027;-48
2022/07/18 08:14:17;;;;;;;3.47;1.17;;;36.80;43.90;;;;;;5034313;28;20108;-50
2022/07/18 08:16:42;;;;;;;1.85;1.20;;;37.30;43.70;;;;;;5034483;28;20496;-45
2022/07/18 08:19:08;;;;;;;4.28;1.40;;;37.50;43.60;;;;;;5050848;28;20033;-48
2022/07/18 08:21:34;;;;;;;4.65;0.85;;;37.10;43.60;;;;;;5041739;28;20560;-53
2022/07/18 08:24:00;;;;;;;13.48;2.30;;;36.40;43.50;;;;;;5053279;28;20096;-48
2022/07/18 08:26:25;;;;;;;3.90;0.98;;;36.00;44.60;;;;;;5038187;28;20014;-50
2022/07/18 08:28:51;;;;;;;8.55;1.40;;;36.40;45.00;;;;;;5032308;28;20092;-46
2022/07/18 08:31:18;;;;;;;5.53;1.45;;;36.50;44.10;;;;;;5034293;28;20112;-47
2022/07/18 08:33:44;;;;;;;6.63;1.45;;;35.90;44.00;;;;;;5075528;22;20501;-45
2022/07/18 08:36:10;;;;;;;2.63;1.20;;;35.80;44.50;;;;;;5068396;28;20033;-46
2022/07/18 08:38:36;;;;;;;8.35;1.15;;;35.80;43.20;;;;;;5041179;28;20075;-44
2022/07/18 08:41:03;;;;;;;5.07;3.03;;;35.60;43.30;;;;;;5032864;28;20036;-47
2022/07/18 08:43:28;;;;;;;6.07;1.10;;;35.50;44.00;;;;;;5048229;28;20057;-47
2022/07/18 08:45:56;;;;;;;1.67;1.38;;;35.10;44.10;;;;;;5032658;28;20107;-45
2022/07/18 08:48:22;;;;;;;1.58;1.02;;;35.00;44.60;;;;;;5042904;28;20191;-45
2022/07/18 08:50:49;;;;;;;2.58;1.70;;;35.00;44.40;;;;;;5051896;28;20503;-45
2022/07/18 08:53:16;;;;;;;5.03;1.30;;;35.00;44.90;;;;;;5050617;28;20029;-47
2022/07/18 08:55:43;;;;;;;9.27;1.30;;;35.00;44.90;;;;;;5050306;28;20035;-46
2022/07/18 08:58:10;;;;;;;3.88;1.38;;;35.00;44.60;;;;;;5050054;28;20036;-46
2022/07/18 09:00:35;;;;;;;5.93;1.52;;;35.00;44.50;;;;;;5052469;28;20021;-48
2022/07/18 09:03:03;;;;;;;1.73;1.08;;;35.00;44.70;;;;;;5052133;28;20051;-47
2022/07/18 09:05:31;;;;;;;9.57;1.17;;;35.10;43.70;;;;;;5052157;28;20049;-44
2022/07/18 09:08:17;;;;;;;2.85;1.10;;;35.00;43.30;;;;;;5049876;28;20029;-46
2022/07/18 09:10:51;;;;;;;9.43;2.20;;;34.90;44.10;;;;;;5045537;28;20029;-46
2022/07/18 09:13:19;;;;;;;6.25;1.08;;;35.00;44.60;;;;;;5052414;28;20029;-48
2022/07/18 09:16:21;;;;;;;13.38;2.03;;;35.10;44.00;;;;;;5052098;28;20511;-46
2022/07/18 09:18:48;;;;;;;14.20;2.15;;;34.60;44.00;;;;;;5050937;28;20523;-45
2022/07/18 09:21:17;;;;;;;2.53;1.10;;;34.50;45.50;;;;;;5051179;28;20077;-48
2022/07/18 09:23:45;;;;;;;3.72;1.35;;;34.40;44.90;;;;;;5053396;28;20017;-47
2022/07/18 09:26:11;;;;;;;6.20;1.10;;;34.30;43.60;;;;;;5052137;28;20102;-45
2022/07/18 09:28:51;;;;;;;3.65;1.05;;;34.10;44.10;;;;;;5051285;28;20492;-49
2022/07/18 09:31:25;;;;;;;8.32;1.88;;;34.00;43.80;;;;;;5051792;28;20051;-47
2022/07/18 09:34:01;;;;;;;11.95;1.30;;;34.00;44.80;;;;;;5051720;28;20033;-50
2022/07/18 09:36:28;;;;;;;4.22;0.90;;;33.50;44.40;;;;;;5052066;28;20047;-47
2022/07/18 09:38:54;;;;;;;11.65;1.20;;;33.50;45.10;;;;;;5051135;28;20021;-47
2022/07/18 09:41:27;;;;;;;4.35;0.80;;;33.40;46.10;;;;;;5051628;28;20029;-42
2022/07/18 09:43:53;;;;;;;3.78;1.30;;;33.50;45.00;;;;;;5051869;28;20670;-47
2022/07/18 09:46:19;;;;;;;5.88;1.75;;;33.50;44.60;;;;;;5051657;28;20619;-49
2022/07/18 09:48:45;;;;;;;7.97;1.33;;;33.60;44.00;;;;;;5049896;28;20021;-45
2022/07/18 09:51:10;;;;;;;3.28;0.93;;;33.40;43.90;;;;;;5052419;28;20056;-45
2022/07/18 09:53:38;;;;;;;4.05;0.90;;;33.30;44.20;;;;;;5050409;28;20067;-49
2022/07/18 09:56:11;;;;;;;4.68;1.00;;;33.30;43.40;;;;;;5049899;28;20024;-44
2022/07/18 09:58:50;;;;;;;4.05;1.30;;;33.20;43.40;;;;;;5051117;28;20378;-47
2022/07/18 10:01:16;;;;;;;3.70;1.02;;;33.00;43.60;;;;;;5052113;28;20025;-46
2022/07/18 10:03:42;;;;;;;3.22;0.90;;;32.80;43.60;;;;;;5052009;28;20021;-45
2022/07/18 10:06:08;;;;;;;7.53;1.00;;;32.60;42.60;;;;;;5051600;28;20033;-46
2022/07/18 10:08:35;;;;;;;6.15;1.88;;;32.30;42.80;;;;;;5050783;28;20029;-46
2022/07/18 10:11:03;;;;;;;3.95;0.85;;;32.30;43.30;;;;;;5051575;28;20029;-48
2022/07/18 10:13:30;;;;;;;5.65;1.08;;;32.30;42.60;;;;;;5051440;28;20037;-45
2022/07/18 10:15:56;;;;;;;0.70;0.70;;;32.30;43.30;;;;;;5034898;28;20033;-43
2022/07/18 10:18:24;;;;;;;6.53;0.93;;;32.30;43.30;;;;;;5032040;28;20037;-45
2022/07/18 10:21:11;;;;;;;1.17;0.98;;;32.40;42.90;;;;;;5035628;28;20117;-47
2022/07/18 10:23:43;;;;;;;3.13;1.00;;;32.50;43.30;;;;;;5035618;28;20185;-46
2022/07/18 10:26:14;;;;;;;2.33;1.02;;;32.70;43.50;;;;;;5052454;28;20099;-47
2022/07/18 10:28:55;;;;;;;1.05;0.95;;;32.70;42.90;;;;;;5054992;28;20014;-47
2022/07/18 10:31:22;;;;;;;3.17;1.23;;;32.50;44.60;;;;;;5055231;28;20025;-50
2022/07/18 10:33:49;;;;;;;3.75;1.13;;;32.50;44.50;;;;;;5054000;28;20127;-51
2022/07/18 10:36:19;;;;;;;4.40;3.60;;;32.40;44.90;;;;;;5054639;28;20028;-48
2022/07/18 10:39:07;;;;;;;18.40;15.10;;;32.30;44.50;;;;;;5054407;28;20029;-48
2022/07/18 10:41:57;;;;;;;0.88;0.88;;;32.00;44.20;;;;;;5053587;28;20029;-47
2022/07/18 10:44:29;;;;;;;4.30;1.00;;;31.80;44.80;;;;;;5055038;28;20109;-48
2022/07/18 10:47:05;;;;;;;2.42;1.00;;;31.60;45.20;;;;;;5054350;28;20515;-48
2022/07/18 10:49:49;;;;;;;1.77;0.93;;;31.40;46.10;;;;;;5055087;28;20029;-49
2022/07/18 10:52:30;;;;;;;3.50;1.20;;;31.10;45.00;;;;;;5054707;28;20033;-55
2022/07/18 10:55:01;;;;;;;5.85;1.45;;;31.10;45.50;;;;;;5049685;28;20037;-48
2022/07/18 10:57:28;;;;;;;5.03;1.42;;;31.10;45.90;;;;;;5039629;28;20021;-52
2022/07/18 11:00:08;;;;;;;6.78;1.10;;;31.20;46.50;;;;;;5037308;28;20083;-52
2022/07/18 11:02:46;;;;;;;1.33;1.23;;;31.20;46.90;;;;;;5055503;28;20021;-50
2022/07/18 11:05:24;;;;;;;2.85;0.90;;;31.10;45.90;;;;;;5054313;28;20048;-48
2022/07/18 11:07:59;;;;;;;2.78;1.10;;;31.10;45.50;;;;;;5048819;28;20510;-52
2022/07/18 11:10:43;;;;;;;1.85;1.13;;;31.10;45.80;;;;;;5041284;28;20026;-52
2022/07/18 11:13:24;;;;;;;1.75;1.20;;;30.90;45.70;;;;;;5038172;28;20774;-52
2022/07/18 11:16:11;;;;;;;4.88;1.27;;;30.80;45.70;;;;;;5038694;28;20025;-49
2022/07/18 11:18:39;;;;;;;6.32;1.45;;;30.70;45.90;;;;;;5036642;28;20111;-44
2022/07/18 11:21:19;;;;;;;4.53;1.60;;;30.60;46.80;;;;;;5048064;28;20082;-49
2022/07/18 11:23:48;;;;;;;4.20;1.35;;;30.60;46.70;;;;;;5044781;28;20059;-50
2022/07/18 11:26:21;;;;;;;1.95;1.00;;;30.70;46.20;;;;;;5042964;28;20026;-45
2022/07/18 11:28:50;;;;;;;3.80;1.20;;;30.70;46.30;;;;;;5047606;28;20057;-49
2022/07/18 11:31:16;;;;;;;3.95;1.15;;;30.60;45.90;;;;;;5051752;28;20304;-50
2022/07/18 11:33:45;;;;;;;4.25;1.10;;;30.60;47.00;;;;;;5049560;28;20087;-47
2022/07/18 11:36:13;;;;;;;4.75;1.30;;;30.70;46.70;;;;;;5053877;28;20041;-54
2022/07/18 11:38:49;;;;;;;4.00;1.13;;;30.80;47.80;;;;;;5054328;28;20051;-49
2022/07/18 11:41:16;;;;;;;1.30;1.20;;;30.80;46.60;;;;;;5049171;28;20095;-47
2022/07/18 11:43:44;;;;;;;3.60;1.10;;;30.90;46.80;;;;;;5038656;28;20172;-47
2022/07/18 11:46:11;;;;;;;1.30;0.90;;;30.90;46.40;;;;;;5068019;28;20028;-50
2022/07/18 11:48:38;;;;;;;2.20;2.00;;;30.90;46.60;;;;;;5049701;28;20024;-55
2022/07/18 11:51:15;;;;;;;2.05;1.30;;;30.80;47.00;;;;;;5055558;28;20089;-49
2022/07/18 11:53:46;;;;;;;1.30;1.17;;;30.80;46.30;;;;;;5066438;28;20048;-51
2022/07/18 11:56:12;;;;;;;2.28;1.20;;;30.80;47.00;;;;;;5051712;28;20036;-50
2022/07/18 11:58:39;;;;;;;5.05;1.20;;;30.90;46.00;;;;;;5055457;28;20044;-49
2022/07/18 12:01:05;;;;;;;2.22;1.13;;;30.80;45.40;;;;;;5054079;28;20032;-48
2022/07/18 12:03:33;;;;;;;1.23;1.02;;;30.80;45.60;;;;;;5050338;28;20078;-46
2022/07/18 12:06:09;;;;;;;3.25;1.30;;;30.70;45.90;;;;;;5056059;28;20033;-47
2022/07/18 12:08:38;;;;;;;5.88;1.30;;;30.60;46.50;;;;;;5042265;28;20032;-50
2022/07/18 12:11:27;;;;;;;4.93;1.33;;;30.70;45.60;;;;;;5035388;28;20029;-53
2022/07/18 12:13:55;;;;;;;3.60;1.00;;;30.70;46.20;;;;;;5037849;28;20127;-48
2022/07/18 12:16:29;;;;;;;2.42;1.38;;;30.60;45.80;;;;;;5050704;28;20025;-54
2022/07/18 12:18:58;;;;;;;52.58;45.50;;;30.50;45.50;;;;;;5049351;28;20488;-48
2022/07/18 12:21:23;;;;;;;12.85;9.60;;;30.60;45.40;;;;;;5041508;28;20038;-55
2022/07/18 12:23:49;;;;;;;9.18;1.30;;;30.60;45.90;;;;;;5046553;28;20028;-51
2022/07/18 12:26:29;;;;;;;1.50;0.90;;;30.60;45.70;;;;;;5041318;28;20023;-49
2022/07/18 12:29:08;;;;;;;1.98;1.02;;;30.60;46.70;;;;;;5034174;28;20028;-52
2022/07/18 12:31:42;;;;;;;6.32;1.00;;;30.50;46.30;;;;;;5045880;28;20063;-52
2022/07/18 12:34:17;;;;;;;5.05;1.30;;;30.60;46.10;;;;;;5039355;28;20238;-48
2022/07/18 12:36:55;;;;;;;4.18;0.93;;;30.60;46.20;;;;;;5041139;28;20029;-46
2022/07/18 12:39:31;;;;;;;6.05;0.93;;;30.70;46.60;;;;;;5047478;28;20052;-49
2022/07/18 12:41:59;;;;;;;4.95;1.40;;;30.70;46.10;;;;;;5051854;28;20526;-47
2022/07/18 12:44:25;;;;;;;3.80;1.20;;;30.50;46.30;;;;;;5050653;28;20455;-46
2022/07/18 12:46:51;;;;;;;3.53;1.20;;;30.60;47.10;;;;;;5050539;28;20392;-45
2022/07/18 12:49:17;;;;;;;7.47;1.10;;;30.60;46.70;;;;;;5051114;28;20412;-47
2022/07/18 12:51:43;;;;;;;4.72;1.27;;;30.80;46.90;;;;;;5050373;28;20029;-48